sensor_id;sensor_type;location;lat;lon;timestamp;temperature;humidity
39493;DHT22;25176;51.060;3.720;2023-05-20T00:00:45;15.00;90.70
39493;DHT22;25176;51.060;3.720;2023-05-20T00:03:14;15.00;90.80
39493;DHT22;25176;51.060;3.720;2023-05-20T00:05:40;14.90;90.70
39493;DHT22;25176;51.060;3.720;2023-05-20T00:08:06;14.90;90.90
39493;DHT22;25176;51.060;3.720;2023-05-20T00:10:34;14.90;90.90
39493;DHT22;25176;51.060;3.720;2023-05-20T00:12:59;14.80;91.10
39493;DHT22;25176;51.060;3.720;2023-05-20T00:15:25;14.70;91.30
39493;DHT22;25176;51.060;3.720;2023-05-20T00:17:50;14.70;91.20
39493;DHT22;25176;51.060;3.720;2023-05-20T00:20:16;14.80;91.40
39493;DHT22;25176;51.060;3.720;2023-05-20T00:22:41;14.80;91.30
39493;DHT22;25176;51.060;3.720;2023-05-20T00:25:07;14.70;91.30
39493;DHT22;25176;51.060;3.720;2023-05-20T00:27:33;14.70;91.50
39493;DHT22;25176;51.060;3.720;2023-05-20T00:29:58;14.70;91.60
39493;DHT22;25176;51.060;3.720;2023-05-20T00:32:24;14.70;91.50
39493;DHT22;25176;51.060;3.720;2023-05-20T00:34:56;14.60;91.60
39493;DHT22;25176;51.060;3.720;2023-05-20T00:37:22;14.60;91.70
39493;DHT22;25176;51.060;3.720;2023-05-20T00:39:48;14.50;91.80
39493;DHT22;25176;51.060;3.720;2023-05-20T00:42:23;14.50;91.70
39493;DHT22;25176;51.060;3.720;2023-05-20T00:44:48;14.60;91.60
39493;DHT22;25176;51.060;3.720;2023-05-20T00:47:15;14.60;91.40
39493;DHT22;25176;51.060;3.720;2023-05-20T00:49:41;14.50;91.40
39493;DHT22;25176;51.060;3.720;2023-05-20T00:52:06;14.50;91.50
39493;DHT22;25176;51.060;3.720;2023-05-20T00:54:32;14.50;91.40
39493;DHT22;25176;51.060;3.720;2023-05-20T00:56:58;14.50;91.50
39493;DHT22;25176;51.060;3.720;2023-05-20T00:59:24;14.40;91.40
39493;DHT22;25176;51.060;3.720;2023-05-20T01:01:50;14.40;91.50
39493;DHT22;25176;51.060;3.720;2023-05-20T01:04:16;14.40;91.40
39493;DHT22;25176;51.060;3.720;2023-05-20T01:06:42;14.30;91.20
39493;DHT22;25176;51.060;3.720;2023-05-20T01:09:07;14.30;91.30
39493;DHT22;25176;51.060;3.720;2023-05-20T01:11:33;14.30;91.30
39493;DHT22;25176;51.060;3.720;2023-05-20T01:14:01;14.30;91.00
39493;DHT22;25176;51.060;3.720;2023-05-20T01:16:27;14.30;91.10
39493;DHT22;25176;51.060;3.720;2023-05-20T01:18:55;14.30;91.00
39493;DHT22;25176;51.060;3.720;2023-05-20T01:21:21;14.30;91.00
39493;DHT22;25176;51.060;3.720;2023-05-20T01:23:47;14.20;91.00
39493;DHT22;25176;51.060;3.720;2023-05-20T01:26:13;14.20;91.00
39493;DHT22;25176;51.060;3.720;2023-05-20T01:28:39;14.20;90.80
39493;DHT22;25176;51.060;3.720;2023-05-20T01:31:05;14.10;90.90
39493;DHT22;25176;51.060;3.720;2023-05-20T01:33:35;14.20;90.70
39493;DHT22;25176;51.060;3.720;2023-05-20T01:36:01;14.10;90.70
39493;DHT22;25176;51.060;3.720;2023-05-20T01:38:27;14.10;90.80
39493;DHT22;25176;51.060;3.720;2023-05-20T01:40:53;14.20;90.50
39493;DHT22;25176;51.060;3.720;2023-05-20T01:43:19;14.10;90.30
39493;DHT22;25176;51.060;3.720;2023-05-20T01:45:45;14.10;90.30
39493;DHT22;25176;51.060;3.720;2023-05-20T01:48:11;14.00;90.40
39493;DHT22;25176;51.060;3.720;2023-05-20T01:50:37;14.00;90.40
39493;DHT22;25176;51.060;3.720;2023-05-20T01:53:02;14.00;90.10
39493;DHT22;25176;51.060;3.720;2023-05-20T01:55:28;14.00;90.30
39493;DHT22;25176;51.060;3.720;2023-05-20T01:57:53;14.00;90.20
39493;DHT22;25176;51.060;3.720;2023-05-20T02:00:19;14.00;90.10
39493;DHT22;25176;51.060;3.720;2023-05-20T02:02:45;14.00;90.10
39493;DHT22;25176;51.060;3.720;2023-05-20T02:05:10;14.00;90.20
39493;DHT22;25176;51.060;3.720;2023-05-20T02:07:36;14.00;90.10
39493;DHT22;25176;51.060;3.720;2023-05-20T02:10:01;14.00;90.00
39493;DHT22;25176;51.060;3.720;2023-05-20T02:12:27;14.00;90.10
39493;DHT22;25176;51.060;3.720;2023-05-20T02:14:52;14.00;90.20
39493;DHT22;25176;51.060;3.720;2023-05-20T02:17:19;13.90;90.10
39493;DHT22;25176;51.060;3.720;2023-05-20T02:19:44;13.90;90.00
39493;DHT22;25176;51.060;3.720;2023-05-20T02:22:11;13.90;90.00
39493;DHT22;25176;51.060;3.720;2023-05-20T02:24:36;13.90;90.00
39493;DHT22;25176;51.060;3.720;2023-05-20T02:27:02;13.90;89.90
39493;DHT22;25176;51.060;3.720;2023-05-20T02:29:29;13.80;90.00
39493;DHT22;25176;51.060;3.720;2023-05-20T02:31:54;13.80;90.10
39493;DHT22;25176;51.060;3.720;2023-05-20T02:34:20;13.90;90.10
39493;DHT22;25176;51.060;3.720;2023-05-20T02:36:45;13.80;89.90
39493;DHT22;25176;51.060;3.720;2023-05-20T02:39:11;13.80;90.00
39493;DHT22;25176;51.060;3.720;2023-05-20T02:41:37;13.70;90.10
39493;DHT22;25176;51.060;3.720;2023-05-20T02:44:02;13.70;90.20
39493;DHT22;25176;51.060;3.720;2023-05-20T02:46:28;13.80;89.90
39493;DHT22;25176;51.060;3.720;2023-05-20T02:48:53;13.70;90.20
39493;DHT22;25176;51.060;3.720;2023-05-20T02:51:19;13.70;89.70
39493;DHT22;25176;51.060;3.720;2023-05-20T02:53:44;13.70;90.00
39493;DHT22;25176;51.060;3.720;2023-05-20T02:56:10;13.70;89.80
39493;DHT22;25176;51.060;3.720;2023-05-20T02:58:36;13.60;89.80
39493;DHT22;25176;51.060;3.720;2023-05-20T03:01:01;13.70;89.90
39493;DHT22;25176;51.060;3.720;2023-05-20T03:03:27;13.70;90.00
39493;DHT22;25176;51.060;3.720;2023-05-20T03:05:53;13.70;90.00
39493;DHT22;25176;51.060;3.720;2023-05-20T03:08:19;13.50;90.20
39493;DHT22;25176;51.060;3.720;2023-05-20T03:10:45;13.50;90.10
39493;DHT22;25176;51.060;3.720;2023-05-20T03:13:10;13.60;90.00
39493;DHT22;25176;51.060;3.720;2023-05-20T03:15:36;13.60;90.20
39493;DHT22;25176;51.060;3.720;2023-05-20T03:18:02;13.60;90.10
39493;DHT22;25176;51.060;3.720;2023-05-20T03:20:28;13.60;90.00
39493;DHT22;25176;51.060;3.720;2023-05-20T03:22:54;13.50;90.10
39493;DHT22;25176;51.060;3.720;2023-05-20T03:25:20;13.50;90.10
39493;DHT22;25176;51.060;3.720;2023-05-20T03:27:46;13.50;90.10
39493;DHT22;25176;51.060;3.720;2023-05-20T03:30:12;13.50;90.10
39493;DHT22;25176;51.060;3.720;2023-05-20T03:32:38;13.30;90.10
39493;DHT22;25176;51.060;3.720;2023-05-20T03:35:04;13.30;90.30
39493;DHT22;25176;51.060;3.720;2023-05-20T03:37:29;13.30;90.60
39493;DHT22;25176;51.060;3.720;2023-05-20T03:39:55;13.30;90.60
39493;DHT22;25176;51.060;3.720;2023-05-20T03:42:20;13.30;90.30
39493;DHT22;25176;51.060;3.720;2023-05-20T03:44:46;13.20;90.50
39493;DHT22;25176;51.060;3.720;2023-05-20T03:47:11;13.20;90.50
39493;DHT22;25176;51.060;3.720;2023-05-20T03:49:37;13.20;90.70
39493;DHT22;25176;51.060;3.720;2023-05-20T03:52:03;13.30;90.50
39493;DHT22;25176;51.060;3.720;2023-05-20T03:54:29;13.20;90.50
39493;DHT22;25176;51.060;3.720;2023-05-20T03:56:55;13.20;90.70
39493;DHT22;25176;51.060;3.720;2023-05-20T03:59:21;13.10;90.70
39493;DHT22;25176;51.060;3.720;2023-05-20T04:01:47;13.00;90.80
39493;DHT22;25176;51.060;3.720;2023-05-20T04:04:12;13.00;90.90
39493;DHT22;25176;51.060;3.720;2023-05-20T04:06:38;13.10;90.90
39493;DHT22;25176;51.060;3.720;2023-05-20T04:09:04;13.10;90.70
39493;DHT22;25176;51.060;3.720;2023-05-20T04:11:30;13.20;90.80
39493;DHT22;25176;51.060;3.720;2023-05-20T04:13:55;13.20;90.70
39493;DHT22;25176;51.060;3.720;2023-05-20T04:16:22;13.20;90.60
39493;DHT22;25176;51.060;3.720;2023-05-20T04:18:48;13.10;90.90
39493;DHT22;25176;51.060;3.720;2023-05-20T04:21:15;13.10;91.00
39493;DHT22;25176;51.060;3.720;2023-05-20T04:23:40;13.10;90.90
39493;DHT22;25176;51.060;3.720;2023-05-20T04:26:06;13.10;90.90
39493;DHT22;25176;51.060;3.720;2023-05-20T04:28:31;13.00;91.10
39493;DHT22;25176;51.060;3.720;2023-05-20T04:31:00;13.00;91.20
39493;DHT22;25176;51.060;3.720;2023-05-20T04:33:29;13.10;91.00
39493;DHT22;25176;51.060;3.720;2023-05-20T04:35:54;13.10;90.90
39493;DHT22;25176;51.060;3.720;2023-05-20T04:38:23;13.10;90.90
39493;DHT22;25176;51.060;3.720;2023-05-20T04:40:56;13.10;90.90
39493;DHT22;25176;51.060;3.720;2023-05-20T04:43:23;13.20;91.20
39493;DHT22;25176;51.060;3.720;2023-05-20T04:45:49;13.20;90.80
39493;DHT22;25176;51.060;3.720;2023-05-20T04:48:14;13.20;91.00
39493;DHT22;25176;51.060;3.720;2023-05-20T04:50:40;13.20;90.90
39493;DHT22;25176;51.060;3.720;2023-05-20T04:53:06;13.10;91.10
39493;DHT22;25176;51.060;3.720;2023-05-20T04:55:32;13.10;91.10
39493;DHT22;25176;51.060;3.720;2023-05-20T04:57:57;13.10;91.10
39493;DHT22;25176;51.060;3.720;2023-05-20T05:00:23;13.10;91.30
39493;DHT22;25176;51.060;3.720;2023-05-20T05:02:49;13.10;91.40
39493;DHT22;25176;51.060;3.720;2023-05-20T05:05:14;13.20;91.00
39493;DHT22;25176;51.060;3.720;2023-05-20T05:07:40;13.20;90.90
39493;DHT22;25176;51.060;3.720;2023-05-20T05:10:05;13.20;90.80
39493;DHT22;25176;51.060;3.720;2023-05-20T05:12:31;13.20;91.00
39493;DHT22;25176;51.060;3.720;2023-05-20T05:14:56;13.30;90.80
39493;DHT22;25176;51.060;3.720;2023-05-20T05:17:23;13.20;91.00
39493;DHT22;25176;51.060;3.720;2023-05-20T05:19:48;13.20;91.20
39493;DHT22;25176;51.060;3.720;2023-05-20T05:22:14;13.10;91.30
39493;DHT22;25176;51.060;3.720;2023-05-20T05:24:39;13.10;91.30
39493;DHT22;25176;51.060;3.720;2023-05-20T05:27:05;13.10;91.40
39493;DHT22;25176;51.060;3.720;2023-05-20T05:29:30;13.00;91.50
39493;DHT22;25176;51.060;3.720;2023-05-20T05:31:55;13.10;91.50
39493;DHT22;25176;51.060;3.720;2023-05-20T05:34:21;13.20;91.30
39493;DHT22;25176;51.060;3.720;2023-05-20T05:36:46;13.20;91.40
39493;DHT22;25176;51.060;3.720;2023-05-20T05:39:12;13.30;91.30
39493;DHT22;25176;51.060;3.720;2023-05-20T05:41:37;13.30;91.30
39493;DHT22;25176;51.060;3.720;2023-05-20T05:44:03;13.30;91.20
39493;DHT22;25176;51.060;3.720;2023-05-20T05:46:28;13.40;91.20
39493;DHT22;25176;51.060;3.720;2023-05-20T05:48:54;13.50;90.90
39493;DHT22;25176;51.060;3.720;2023-05-20T05:51:20;13.50;90.80
39493;DHT22;25176;51.060;3.720;2023-05-20T05:53:46;13.50;91.10
39493;DHT22;25176;51.060;3.720;2023-05-20T05:56:11;13.70;90.60
39493;DHT22;25176;51.060;3.720;2023-05-20T05:58:37;13.80;90.60
39493;DHT22;25176;51.060;3.720;2023-05-20T06:01:02;14.00;90.30
39493;DHT22;25176;51.060;3.720;2023-05-20T06:03:28;14.10;89.90
39493;DHT22;25176;51.060;3.720;2023-05-20T06:05:55;14.20;89.40
39493;DHT22;25176;51.060;3.720;2023-05-20T06:08:22;14.30;88.80
39493;DHT22;25176;51.060;3.720;2023-05-20T06:10:48;14.30;89.00
39493;DHT22;25176;51.060;3.720;2023-05-20T06:13:14;14.30;88.70
39493;DHT22;25176;51.060;3.720;2023-05-20T06:15:39;14.40;88.70
39493;DHT22;25176;51.060;3.720;2023-05-20T06:18:05;14.50;88.80
39493;DHT22;25176;51.060;3.720;2023-05-20T06:20:31;14.60;88.40
39493;DHT22;25176;51.060;3.720;2023-05-20T06:22:56;14.70;88.40
39493;DHT22;25176;51.060;3.720;2023-05-20T06:25:22;14.90;87.80
39493;DHT22;25176;51.060;3.720;2023-05-20T06:27:48;15.00;87.10
39493;DHT22;25176;51.060;3.720;2023-05-20T06:30:13;14.90;87.20
39493;DHT22;25176;51.060;3.720;2023-05-20T06:32:39;14.90;86.50
39493;DHT22;25176;51.060;3.720;2023-05-20T06:35:04;14.90;86.40
39493;DHT22;25176;51.060;3.720;2023-05-20T06:37:30;15.00;86.30
39493;DHT22;25176;51.060;3.720;2023-05-20T06:39:55;15.00;86.10
39493;DHT22;25176;51.060;3.720;2023-05-20T06:42:21;15.10;86.10
39493;DHT22;25176;51.060;3.720;2023-05-20T06:44:46;15.10;85.60
39493;DHT22;25176;51.060;3.720;2023-05-20T06:47:13;15.20;86.00
39493;DHT22;25176;51.060;3.720;2023-05-20T06:49:38;15.30;85.60
39493;DHT22;25176;51.060;3.720;2023-05-20T06:52:04;15.80;85.00
39493;DHT22;25176;51.060;3.720;2023-05-20T06:54:29;16.90;82.20
39493;DHT22;25176;51.060;3.720;2023-05-20T06:56:58;18.20;78.10
39493;DHT22;25176;51.060;3.720;2023-05-20T06:59:24;19.20;75.30
39493;DHT22;25176;51.060;3.720;2023-05-20T07:01:49;20.50;71.20
39493;DHT22;25176;51.060;3.720;2023-05-20T07:04:15;20.70;70.10
39493;DHT22;25176;51.060;3.720;2023-05-20T07:06:40;22.00;68.30
39493;DHT22;25176;51.060;3.720;2023-05-20T07:09:06;22.90;65.50
39493;DHT22;25176;51.060;3.720;2023-05-20T07:11:32;22.80;64.20
39493;DHT22;25176;51.060;3.720;2023-05-20T07:13:57;24.00;61.90
39493;DHT22;25176;51.060;3.720;2023-05-20T07:16:23;23.60;62.00
39493;DHT22;25176;51.060;3.720;2023-05-20T07:18:48;23.40;61.20
39493;DHT22;25176;51.060;3.720;2023-05-20T07:21:14;24.10;61.00
39493;DHT22;25176;51.060;3.720;2023-05-20T07:23:39;24.80;59.50
39493;DHT22;25176;51.060;3.720;2023-05-20T07:26:05;24.40;59.30
39493;DHT22;25176;51.060;3.720;2023-05-20T07:28:30;24.10;59.70
39493;DHT22;25176;51.060;3.720;2023-05-20T07:30:56;24.70;58.90
39493;DHT22;25176;51.060;3.720;2023-05-20T07:33:22;25.50;57.60
39493;DHT22;25176;51.060;3.720;2023-05-20T07:35:47;25.60;56.80
39493;DHT22;25176;51.060;3.720;2023-05-20T07:38:13;25.30;56.90
39493;DHT22;25176;51.060;3.720;2023-05-20T07:40:39;25.70;56.70
39493;DHT22;25176;51.060;3.720;2023-05-20T07:43:06;26.20;55.80
39493;DHT22;25176;51.060;3.720;2023-05-20T07:45:33;27.80;55.60
39493;DHT22;25176;51.060;3.720;2023-05-20T07:47:59;30.20;53.40
39493;DHT22;25176;51.060;3.720;2023-05-20T07:50:24;29.10;52.00
39493;DHT22;25176;51.060;3.720;2023-05-20T07:52:50;28.70;52.10
39493;DHT22;25176;51.060;3.720;2023-05-20T07:55:15;29.60;50.90
39493;DHT22;25176;51.060;3.720;2023-05-20T07:57:42;30.10;50.30
39493;DHT22;25176;51.060;3.720;2023-05-20T08:00:08;29.70;50.10
39493;DHT22;25176;51.060;3.720;2023-05-20T08:02:34;28.70;51.40
39493;DHT22;25176;51.060;3.720;2023-05-20T08:04:59;28.80;52.00
39493;DHT22;25176;51.060;3.720;2023-05-20T08:07:24;29.30;51.20
39493;DHT22;25176;51.060;3.720;2023-05-20T08:09:50;30.20;50.50
39493;DHT22;25176;51.060;3.720;2023-05-20T08:12:15;29.80;49.70
39493;DHT22;25176;51.060;3.720;2023-05-20T08:14:41;29.60;49.90
39493;DHT22;25176;51.060;3.720;2023-05-20T08:17:08;31.00;48.60
39493;DHT22;25176;51.060;3.720;2023-05-20T08:19:33;31.70;48.00
39493;DHT22;25176;51.060;3.720;2023-05-20T08:21:59;30.50;48.70
39493;DHT22;25176;51.060;3.720;2023-05-20T08:24:24;29.80;48.80
39493;DHT22;25176;51.060;3.720;2023-05-20T08:26:50;29.70;49.60
39493;DHT22;25176;51.060;3.720;2023-05-20T08:29:16;30.40;49.30
39493;DHT22;25176;51.060;3.720;2023-05-20T08:31:41;32.40;47.40
39493;DHT22;25176;51.060;3.720;2023-05-20T08:34:07;30.70;47.90
39493;DHT22;25176;51.060;3.720;2023-05-20T08:36:32;30.40;48.30
39493;DHT22;25176;51.060;3.720;2023-05-20T08:38:59;30.40;47.70
39493;DHT22;25176;51.060;3.720;2023-05-20T08:41:24;30.50;48.80
39493;DHT22;25176;51.060;3.720;2023-05-20T08:43:49;32.00;47.20
39493;DHT22;25176;51.060;3.720;2023-05-20T08:46:16;32.10;46.70
39493;DHT22;25176;51.060;3.720;2023-05-20T08:48:43;31.90;45.80
39493;DHT22;25176;51.060;3.720;2023-05-20T08:51:08;32.20;45.90
39493;DHT22;25176;51.060;3.720;2023-05-20T08:53:35;31.20;46.50
39493;DHT22;25176;51.060;3.720;2023-05-20T08:56:01;31.60;46.20
39493;DHT22;25176;51.060;3.720;2023-05-20T08:58:29;31.60;46.50
39493;DHT22;25176;51.060;3.720;2023-05-20T09:00:55;30.30;46.30
39493;DHT22;25176;51.060;3.720;2023-05-20T09:03:21;29.50;47.60
39493;DHT22;25176;51.060;3.720;2023-05-20T09:05:48;31.10;46.60
39493;DHT22;25176;51.060;3.720;2023-05-20T09:08:13;30.00;47.10
39493;DHT22;25176;51.060;3.720;2023-05-20T09:10:39;30.60;46.40
39493;DHT22;25176;51.060;3.720;2023-05-20T09:13:05;29.40;47.80
39493;DHT22;25176;51.060;3.720;2023-05-20T09:15:31;31.50;46.10
39493;DHT22;25176;51.060;3.720;2023-05-20T09:18:04;31.00;45.70
39493;DHT22;25176;51.060;3.720;2023-05-20T09:20:31;30.70;45.60
39493;DHT22;25176;51.060;3.720;2023-05-20T09:22:58;29.70;47.90
39493;DHT22;25176;51.060;3.720;2023-05-20T09:25:23;29.60;47.00
39493;DHT22;25176;51.060;3.720;2023-05-20T09:27:49;29.30;48.00
39493;DHT22;25176;51.060;3.720;2023-05-20T09:30:18;29.80;47.30
39493;DHT22;25176;51.060;3.720;2023-05-20T09:32:43;29.30;48.00
39493;DHT22;25176;51.060;3.720;2023-05-20T09:35:12;28.80;48.80
39493;DHT22;25176;51.060;3.720;2023-05-20T09:37:38;28.50;48.40
39493;DHT22;25176;51.060;3.720;2023-05-20T09:40:05;27.80;49.60
39493;DHT22;25176;51.060;3.720;2023-05-20T09:42:36;28.00;49.00
39493;DHT22;25176;51.060;3.720;2023-05-20T09:45:03;26.90;50.20
39493;DHT22;25176;51.060;3.720;2023-05-20T09:47:29;26.60;51.30
39493;DHT22;25176;51.060;3.720;2023-05-20T09:49:55;28.70;50.20
39493;DHT22;25176;51.060;3.720;2023-05-20T09:52:21;29.10;48.60
39493;DHT22;25176;51.060;3.720;2023-05-20T09:54:47;29.40;48.00
39493;DHT22;25176;51.060;3.720;2023-05-20T09:57:12;29.80;48.50
39493;DHT22;25176;51.060;3.720;2023-05-20T09:59:38;30.10;47.10
39493;DHT22;25176;51.060;3.720;2023-05-20T10:02:04;32.40;45.40
39493;DHT22;25176;51.060;3.720;2023-05-20T10:04:30;30.30;46.50
39493;DHT22;25176;51.060;3.720;2023-05-20T10:15:00;28.60;47.20
39493;DHT22;25176;51.060;3.720;2023-05-20T10:17:34;28.60;48.50
39493;DHT22;25176;51.060;3.720;2023-05-20T10:20:05;28.20;47.80
39493;DHT22;25176;51.060;3.720;2023-05-20T10:22:31;28.60;48.20
39493;DHT22;25176;51.060;3.720;2023-05-20T10:24:57;28.20;45.70
39493;DHT22;25176;51.060;3.720;2023-05-20T10:27:22;27.80;47.90
39493;DHT22;25176;51.060;3.720;2023-05-20T10:29:51;28.00;47.40
39493;DHT22;25176;51.060;3.720;2023-05-20T10:32:30;26.80;48.40
39493;DHT22;25176;51.060;3.720;2023-05-20T10:35:00;25.50;50.10
39493;DHT22;25176;51.060;3.720;2023-05-20T10:37:32;26.00;49.50
39493;DHT22;25176;51.060;3.720;2023-05-20T10:40:02;26.30;49.40
39493;DHT22;25176;51.060;3.720;2023-05-20T10:42:28;26.20;49.30
39493;DHT22;25176;51.060;3.720;2023-05-20T10:44:54;25.50;50.20
39493;DHT22;25176;51.060;3.720;2023-05-20T10:47:20;24.80;51.20
39493;DHT22;25176;51.060;3.720;2023-05-20T10:49:45;24.60;51.40
39493;DHT22;25176;51.060;3.720;2023-05-20T10:52:12;24.00;52.00
39493;DHT22;25176;51.060;3.720;2023-05-20T10:54:44;23.90;52.30
39493;DHT22;25176;51.060;3.720;2023-05-20T10:57:10;23.60;51.80
39493;DHT22;25176;51.060;3.720;2023-05-20T10:59:36;23.40;52.00
39493;DHT22;25176;51.060;3.720;2023-05-20T11:02:02;23.50;52.40
39493;DHT22;25176;51.060;3.720;2023-05-20T11:04:31;24.10;50.90
39493;DHT22;25176;51.060;3.720;2023-05-20T11:06:57;23.20;52.20
39493;DHT22;25176;51.060;3.720;2023-05-20T11:09:23;23.30;52.10
39493;DHT22;25176;51.060;3.720;2023-05-20T11:11:49;22.50;53.10
39493;DHT22;25176;51.060;3.720;2023-05-20T11:14:15;22.20;53.90
39493;DHT22;25176;51.060;3.720;2023-05-20T11:16:42;22.20;54.30
39493;DHT22;25176;51.060;3.720;2023-05-20T11:19:13;22.20;54.10
39493;DHT22;25176;51.060;3.720;2023-05-20T11:21:42;22.10;54.40
39493;DHT22;25176;51.060;3.720;2023-05-20T11:24:07;21.80;55.10
39493;DHT22;25176;51.060;3.720;2023-05-20T11:26:33;22.00;55.00
39493;DHT22;25176;51.060;3.720;2023-05-20T11:28:58;21.90;54.70
39493;DHT22;25176;51.060;3.720;2023-05-20T11:31:25;21.90;55.00
39493;DHT22;25176;51.060;3.720;2023-05-20T11:33:51;21.80;55.10
39493;DHT22;25176;51.060;3.720;2023-05-20T11:36:17;21.90;54.50
39493;DHT22;25176;51.060;3.720;2023-05-20T11:38:44;21.70;54.50
39493;DHT22;25176;51.060;3.720;2023-05-20T11:41:10;21.70;54.70
39493;DHT22;25176;51.060;3.720;2023-05-20T11:43:35;21.40;54.90
39493;DHT22;25176;51.060;3.720;2023-05-20T11:46:01;21.40;55.20
39493;DHT22;25176;51.060;3.720;2023-05-20T11:48:26;21.50;54.50
39493;DHT22;25176;51.060;3.720;2023-05-20T11:50:52;21.40;54.70
39493;DHT22;25176;51.060;3.720;2023-05-20T11:53:21;21.70;54.40
39493;DHT22;25176;51.060;3.720;2023-05-20T11:55:48;21.60;54.80
39493;DHT22;25176;51.060;3.720;2023-05-20T11:58:20;21.60;54.70
39493;DHT22;25176;51.060;3.720;2023-05-20T12:00:46;21.50;55.20
39493;DHT22;25176;51.060;3.720;2023-05-20T12:03:12;21.70;54.70
39493;DHT22;25176;51.060;3.720;2023-05-20T12:05:38;21.80;54.60
39493;DHT22;25176;51.060;3.720;2023-05-20T12:08:04;21.90;54.90
39493;DHT22;25176;51.060;3.720;2023-05-20T12:10:30;22.10;54.60
39493;DHT22;25176;51.060;3.720;2023-05-20T12:12:56;22.20;53.90
39493;DHT22;25176;51.060;3.720;2023-05-20T12:15:21;22.10;53.80
39493;DHT22;25176;51.060;3.720;2023-05-20T12:17:47;21.90;53.90
39493;DHT22;25176;51.060;3.720;2023-05-20T12:20:14;21.90;54.30
39493;DHT22;25176;51.060;3.720;2023-05-20T12:22:40;21.90;55.00
39493;DHT22;25176;51.060;3.720;2023-05-20T12:25:06;21.80;54.50
39493;DHT22;25176;51.060;3.720;2023-05-20T12:27:31;21.80;54.80
39493;DHT22;25176;51.060;3.720;2023-05-20T12:29:58;22.20;54.30
39493;DHT22;25176;51.060;3.720;2023-05-20T12:32:23;22.10;53.60
39493;DHT22;25176;51.060;3.720;2023-05-20T12:34:49;22.20;53.80
39493;DHT22;25176;51.060;3.720;2023-05-20T12:37:15;22.40;53.20
39493;DHT22;25176;51.060;3.720;2023-05-20T12:39:40;22.30;53.00
39493;DHT22;25176;51.060;3.720;2023-05-20T12:42:06;22.00;53.90
39493;DHT22;25176;51.060;3.720;2023-05-20T12:44:31;21.90;54.50
39493;DHT22;25176;51.060;3.720;2023-05-20T12:46:57;21.90;54.80
39493;DHT22;25176;51.060;3.720;2023-05-20T12:49:22;22.10;54.90
39493;DHT22;25176;51.060;3.720;2023-05-20T12:51:48;22.20;54.40
39493;DHT22;25176;51.060;3.720;2023-05-20T12:54:13;21.90;54.50
39493;DHT22;25176;51.060;3.720;2023-05-20T12:56:39;22.10;54.90
39493;DHT22;25176;51.060;3.720;2023-05-20T12:59:04;22.10;54.60
39493;DHT22;25176;51.060;3.720;2023-05-20T13:01:30;22.30;54.60
39493;DHT22;25176;51.060;3.720;2023-05-20T13:03:56;22.30;54.30
39493;DHT22;25176;51.060;3.720;2023-05-20T13:06:21;22.20;54.90
39493;DHT22;25176;51.060;3.720;2023-05-20T13:08:47;22.20;54.80
39493;DHT22;25176;51.060;3.720;2023-05-20T13:11:12;22.30;55.20
39493;DHT22;25176;51.060;3.720;2023-05-20T13:13:38;22.10;55.40
39493;DHT22;25176;51.060;3.720;2023-05-20T13:16:03;22.40;55.30
39493;DHT22;25176;51.060;3.720;2023-05-20T13:18:29;22.40;54.60
39493;DHT22;25176;51.060;3.720;2023-05-20T13:20:54;22.40;54.80
39493;DHT22;25176;51.060;3.720;2023-05-20T13:23:20;22.40;55.00
39493;DHT22;25176;51.060;3.720;2023-05-20T13:25:46;22.30;55.00
39493;DHT22;25176;51.060;3.720;2023-05-20T13:28:11;22.40;55.20
39493;DHT22;25176;51.060;3.720;2023-05-20T13:30:40;22.50;54.80
39493;DHT22;25176;51.060;3.720;2023-05-20T13:33:08;22.50;55.50
39493;DHT22;25176;51.060;3.720;2023-05-20T13:35:36;22.50;54.90
39493;DHT22;25176;51.060;3.720;2023-05-20T13:38:02;22.40;55.00
39493;DHT22;25176;51.060;3.720;2023-05-20T13:40:27;22.30;55.50
39493;DHT22;25176;51.060;3.720;2023-05-20T13:42:53;22.50;55.50
39493;DHT22;25176;51.060;3.720;2023-05-20T13:45:18;22.60;55.10
39493;DHT22;25176;51.060;3.720;2023-05-20T13:47:44;22.50;55.00
39493;DHT22;25176;51.060;3.720;2023-05-20T13:50:10;22.40;54.90
39493;DHT22;25176;51.060;3.720;2023-05-20T13:52:36;22.40;55.30
39493;DHT22;25176;51.060;3.720;2023-05-20T13:55:01;22.50;55.10
39493;DHT22;25176;51.060;3.720;2023-05-20T13:57:27;22.30;55.60
39493;DHT22;25176;51.060;3.720;2023-05-20T13:59:52;22.20;55.80
39493;DHT22;25176;51.060;3.720;2023-05-20T14:02:18;22.10;56.50
39493;DHT22;25176;51.060;3.720;2023-05-20T14:04:43;22.30;55.40
39493;DHT22;25176;51.060;3.720;2023-05-20T14:07:11;22.20;55.30
39493;DHT22;25176;51.060;3.720;2023-05-20T14:09:37;22.30;55.70
39493;DHT22;25176;51.060;3.720;2023-05-20T14:12:03;22.50;56.00
39493;DHT22;25176;51.060;3.720;2023-05-20T14:14:28;22.70;55.30
39493;DHT22;25176;51.060;3.720;2023-05-20T14:16:54;22.80;55.40
39493;DHT22;25176;51.060;3.720;2023-05-20T14:19:19;22.80;55.60
39493;DHT22;25176;51.060;3.720;2023-05-20T14:21:45;22.80;55.60
39493;DHT22;25176;51.060;3.720;2023-05-20T14:24:11;23.00;55.30
39493;DHT22;25176;51.060;3.720;2023-05-20T14:26:36;23.00;55.20
39493;DHT22;25176;51.060;3.720;2023-05-20T14:29:02;22.80;55.20
39493;DHT22;25176;51.060;3.720;2023-05-20T14:31:27;22.30;55.90
39493;DHT22;25176;51.060;3.720;2023-05-20T14:33:53;22.40;56.50
39493;DHT22;25176;51.060;3.720;2023-05-20T14:36:18;22.60;56.30
39493;DHT22;25176;51.060;3.720;2023-05-20T14:38:44;22.40;56.60
39493;DHT22;25176;51.060;3.720;2023-05-20T14:41:09;22.40;56.90
39493;DHT22;25176;51.060;3.720;2023-05-20T14:43:35;22.40;57.10
39493;DHT22;25176;51.060;3.720;2023-05-20T14:46:01;22.10;57.20
39493;DHT22;25176;51.060;3.720;2023-05-20T14:48:26;22.20;57.30
39493;DHT22;25176;51.060;3.720;2023-05-20T14:50:52;22.20;57.20
39493;DHT22;25176;51.060;3.720;2023-05-20T14:53:17;22.00;57.50
39493;DHT22;25176;51.060;3.720;2023-05-20T14:55:43;22.30;57.50
39493;DHT22;25176;51.060;3.720;2023-05-20T14:58:09;22.40;56.80
39493;DHT22;25176;51.060;3.720;2023-05-20T15:00:34;22.20;57.30
39493;DHT22;25176;51.060;3.720;2023-05-20T15:03:00;22.10;57.60
39493;DHT22;25176;51.060;3.720;2023-05-20T15:05:25;22.00;57.70
39493;DHT22;25176;51.060;3.720;2023-05-20T15:07:51;22.00;57.90
39493;DHT22;25176;51.060;3.720;2023-05-20T15:10:16;22.10;58.00
39493;DHT22;25176;51.060;3.720;2023-05-20T15:12:42;22.20;57.90
39493;DHT22;25176;51.060;3.720;2023-05-20T15:15:08;22.50;57.40
39493;DHT22;25176;51.060;3.720;2023-05-20T15:17:33;22.50;57.50
39493;DHT22;25176;51.060;3.720;2023-05-20T15:19:59;22.50;57.50
39493;DHT22;25176;51.060;3.720;2023-05-20T15:22:24;22.30;57.80
39493;DHT22;25176;51.060;3.720;2023-05-20T15:24:50;22.20;58.10
39493;DHT22;25176;51.060;3.720;2023-05-20T15:27:15;22.30;58.30
39493;DHT22;25176;51.060;3.720;2023-05-20T15:29:41;22.30;58.20